Latest Weather Observations for Roseworthy

IDS60801

Issued at 7:01 pm CDT Sunday 24 January 2021 (issued every 10 minutes, with the page automatically refreshed every 10 minutes)

About weather observations | Map of weather stations | Latest weather observations for SA | Other Formats
Station Details ID: 023122 Name: ROSEWORTHY AWS Lat: -34.51 Lon: 138.68 Height: 65.0 m
Data from the previous 72 hours. | See also: Recent months at Roseworthy
Date/Time
CDT
Temp
°C
App
Temp
°C
Dew
Point
°C
Rel
Hum
%
Delta-T
°C
Wind Press
QNH
hPa
Press
MSL
hPa
Rain since
9am
mm
Dir  Spd
km/h
Gust
km/h
Spd
kts
Gust
kts
24/07:00pm 36.3 30.8 9.0 19 15.7 SW 28 37 15 20 1000.5 1000.2 0.0
24/06:30pm 38.6 33.1 9.2 17 17.2 W 28 44 15 24 1000.3 1000.0 0.0
24/06:00pm 41.7 35.8 3.9 10 20.7 W 24 33 13 18 1000.0 999.7 0.0
24/05:55pm 41.3 34.6 3.6 10 20.5 WNW 28 46 15 25 1000.1 999.8 0.0
24/05:30pm 42.1 35.5 4.2 10 20.9 NW 28 43 15 23 1000.1 999.8 0.0
24/05:00pm 43.0 36.9 4.9 10 21.2 NW 26 39 14 21 1000.4 1000.1 0.0
24/04:30pm 43.6 37.6 5.3 10 21.6 NW 26 39 14 21 1000.8 1000.5 0.0
24/04:00pm 43.4 36.2 5.2 10 21.4 NW 32 54 17 29 1001.0 1000.7 0.0
24/03:37pm 42.8 36.3 4.7 10 21.2 NW 28 50 15 27 1001.3 1001.0 0.0
24/03:30pm 42.4 36.2 4.4 10 21.1 NW 26 39 14 21 1001.5 1001.2 0.0
24/03:00pm 43.1 36.6 4.9 10 21.4 NW 28 44 15 24 1001.8 1001.5 0.0
24/02:42pm 43.3 36.1 5.1 10 21.4 NW 32 52 17 28 1002.0 1001.7 0.0
24/02:30pm 43.1 36.3 4.9 10 21.4 NNW 30 44 16 24 1002.2 1001.9 0.0
24/02:06pm 43.8 37.2 4.0 9 22.0 NW 28 46 15 25 1002.4 1002.1 0.0
24/02:00pm 43.2 37.6 3.5 9 21.7 NW 22 41 12 22 1002.5 1002.2 0.0
24/01:30pm 43.2 37.2 3.5 9 21.8 NNW 24 37 13 20 1003.1 1002.8 0.0
24/01:00pm 43.3 36.6 3.6 9 21.7 NNW 28 41 15 22 1003.3 1003.0 0.0
24/12:34pm 42.3 35.4 2.8 9 21.3 NNW 28 46 15 25 1003.6 1003.3 0.0
24/12:30pm 42.4 35.6 2.9 9 21.4 NNW 28 41 15 22 1003.6 1003.3 0.0
24/12:12pm 43.5 36.4 3.7 9 21.9 NW 30 48 16 26 1003.8 1003.5 0.0
24/12:00pm 43.9 36.3 4.0 9 22.1 NW 33 46 18 25 1003.9 1003.6 0.0
24/11:44am 42.5 35.2 4.5 10 21.0 NNW 32 50 17 27 1004.0 1003.7 0.0
24/11:30am 42.1 34.6 4.2 10 20.9 NNW 33 46 18 25 1004.2 1003.9 0.0
24/11:24am 42.7 34.6 3.1 9 21.5 NNW 35 48 19 26 1004.3 1004.0 0.0
24/11:00am 41.7 35.2 2.4 9 21.0 N 26 35 14 19 1004.4 1004.1 0.0
24/10:30am 39.7 32.9 0.9 9 20.1 NNE 26 37 14 20 1004.8 1004.5 0.0
24/10:00am 39.0 31.4 0.4 9 19.7 NNE 30 39 16 21 1005.0 1004.7 0.0
24/09:30am 36.9 28.7 0.3 10 18.5 NE 33 43 18 23 1005.3 1005.0 0.0
24/09:00am 36.3 27.6 -0.2 10 18.2 NE 35 48 19 26 1005.4 1005.1 0.0
24/08:30am 33.2 25.7 1.1 13 16.0 NE 30 37 16 20 1005.5 1005.2 0.0
24/08:00am 32.1 24.6 1.3 14 15.3 NE 30 39 16 21 1005.4 1005.1 0.0
24/07:30am 30.7 23.2 3.7 18 13.9 NE 32 39 17 21 1005.1 1004.8 0.0
24/07:00am 29.8 22.2 3.7 19 13.3 ENE 33 43 18 23 1005.0 1004.7 0.0
24/06:30am 28.9 21.7 3.0 19 13.0 NE 30 39 16 21 1005.0 1004.7 0.0
24/06:00am 28.9 21.7 3.0 19 13.0 NE 30 37 16 20 1004.9 1004.6 0.0
24/05:30am 28.7 22.0 3.5 20 12.8 ENE 28 35 15 19 1004.8 1004.5 0.0
24/05:00am 28.4 22.8 3.3 20 12.6 ENE 22 28 12 15 1004.8 1004.5 0.0
24/04:30am 27.9 22.2 4.9 23 11.9 ENE 24 32 13 17 1004.8 1004.5 0.0
24/04:00am 28.4 23.5 5.3 23 12.0 NE 20 28 11 15 1004.9 1004.6 0.0
24/03:30am 28.8 22.6 6.2 24 12.0 ENE 28 39 15 21 1004.9 1004.6 0.0
24/03:00am 29.4 23.3 6.7 24 12.2 ENE 28 35 15 19 1005.0 1004.7 0.0
24/02:30am 29.3 23.1 7.8 26 11.7 ENE 30 39 16 21 1005.3 1005.0 0.0
24/02:00am 29.3 23.5 7.8 26 11.7 E 28 39 15 21 1005.7 1005.4 0.0
24/01:30am 29.4 25.3 8.5 27 11.6 E 20 28 11 15 1006.1 1005.8 0.0
24/01:00am 29.2 25.1 7.7 26 11.7 ESE 19 22 10 12 1006.4 1006.1 0.0
24/12:30am 29.7 25.1 8.2 26 11.8 ESE 22 28 12 15 1006.7 1006.4 0.0
24/12:00am 29.7 25.5 8.2 26 11.8 E 20 26 11 14 1006.8 1006.5 0.0
 
Date/Time
CDT
Temp
°C
App
Temp
°C
Dew
Point
°C
Rel
Hum
%
Delta-T
°C
Wind Press
QNH
hPa
Press
MSL
hPa
Rain since
9am
mm
Dir  Spd
km/h
Gust
km/h
Spd
kts
Gust
kts
23/11:30pm 28.2 24.9 8.0 28 11.0 E 15 19 8 10 1006.9 1006.6 0.0
23/11:00pm 27.2 24.1 7.1 28 10.7 E 13 17 7 9 1007.1 1006.8 0.0
23/10:30pm 28.8 25.1 7.9 27 11.4 E 17 22 9 12 1007.1 1006.8 0.0
23/10:00pm 31.1 27.2 8.8 25 12.5 ESE 19 26 10 14 1007.1 1006.8 0.0
23/09:30pm 31.9 28.2 9.4 25 12.8 ESE 19 24 10 13 1007.1 1006.8 0.0
23/09:00pm 33.2 28.7 8.6 22 13.9 SE 22 30 12 16 1006.8 1006.5 0.0
23/08:30pm 34.7 30.9 7.7 19 15.1 SE 17 24 9 13 1006.5 1006.2 0.0
23/08:00pm 35.1 30.5 3.6 14 16.5 SSW 17 22 9 12 1006.2 1005.9 0.0
23/07:30pm 36.4 31.0 2.5 12 17.7 SSW 20 26 11 14 1006.1 1005.8 0.0
23/07:00pm 37.7 32.3 2.2 11 18.5 SSW 20 30 11 16 1005.9 1005.6 0.0
23/06:30pm 38.9 33.4 1.8 10 19.4 SSW 20 28 11 15 1005.7 1005.4 0.0
23/06:00pm 38.8 33.1 0.3 9 19.7 SSW 20 30 11 16 1005.8 1005.5 0.0
23/05:30pm 39.2 33.7 0.6 9 19.8 SSW 19 28 10 15 1005.8 1005.5 0.0
23/05:00pm 39.5 34.0 0.8 9 19.9 S 19 26 10 14 1005.9 1005.6 0.0
23/04:30pm 39.6 33.7 -0.8 8 20.4 SSW 20 32 11 17 1006.1 1005.8 0.0
23/04:00pm 40.0 34.4 1.1 9 20.2 SW 20 32 11 17 1006.1 1005.8 0.0
23/03:30pm 40.1 34.5 1.2 9 20.3 SSW 20 35 11 19 1006.4 1006.1 0.0
23/03:00pm 39.9 35.0 -0.5 8 20.5 W 15 26 8 14 1006.7 1006.4 0.0
23/02:40pm 41.3 34.8 0.5 8 21.1 N 24 54 13 29 1006.5 1006.2 0.0
23/02:30pm 39.7 35.9 -0.7 8 20.4 NNW 9 22 5 12 1006.9 1006.6 0.0
23/02:00pm 40.7 35.9 0.0 8 20.9 NNW 15 26 8 14 1007.4 1007.1 0.0
23/01:30pm 38.7 33.3 -1.4 8 19.9 NW 17 24 9 13 1007.8 1007.5 0.0
23/01:00pm 39.3 33.9 -1.0 8 20.2 NNW 17 26 9 14 1008.1 1007.8 0.0
23/12:30pm 38.2 32.7 -1.8 8 19.7 N 17 26 9 14 1008.5 1008.2 0.0
23/12:00pm 37.9 32.7 2.4 11 18.6 ENE 19 30 10 16 1008.7 1008.4 0.0
23/11:30am 36.5 30.7 0.0 10 18.3 NNE 20 30 11 16 1009.1 1008.8 0.0
23/11:00am 35.0 27.9 1.4 12 17.0 NE 28 35 15 19 1009.2 1008.9 0.0
23/10:30am 34.0 26.8 2.8 14 16.1 ENE 30 37 16 20 1009.6 1009.3 0.0
23/10:00am 33.2 25.8 2.1 14 15.8 NE 30 37 16 20 1009.8 1009.5 0.0
23/09:30am 30.4 22.3 0.9 15 14.4 NE 33 43 18 23 1009.8 1009.5 0.0
23/09:00am 28.0 19.4 -0.1 16 13.3 ENE 35 44 19 24 1009.7 1009.4 0.0
23/08:30am 26.7 18.3 -2.1 15 13.0 NE 32 41 17 22 1010.0 1009.7 0.0
23/08:00am 25.1 17.7 -7.4 11 13.1 ENE 24 33 13 18 1010.2 1009.9 0.0
23/07:30am 22.9 18.2 -9.1 11 12.2 ENE 9 13 5 7 1010.1 1009.8 0.0
23/07:00am 19.0 15.9 -6.6 17 9.8 ESE 2 11 1 6 1010.0 1009.7 0.0
23/06:30am 16.8 12.4 -5.6 21 8.6 ESE 9 11 5 6 1009.7 1009.4 0.0
23/06:00am 14.6 9.9 -4.7 26 7.4 E 11 11 6 6 1009.5 1009.2 0.0
23/05:30am 15.4 11.6 -3.5 27 7.5 E 7 9 4 5 1009.4 1009.1 0.0
23/05:00am 15.4 10.4 -4.0 26 7.6 ENE 13 13 7 7 1009.2 1008.9 0.0
23/04:30am 14.6 10.5 -2.8 30 6.9 ENE 9 13 5 7 1009.3 1009.0 0.0
23/04:00am 17.0 13.1 -1.6 28 7.8 E 9 13 5 7 1009.4 1009.1 0.0
23/03:30am 17.2 13.3 -1.4 28 7.8 ENE 9 11 5 6 1009.4 1009.1 0.0
23/03:00am 16.7 13.4 -0.1 32 7.2 ENE 7 9 4 5 1009.6 1009.3 0.0
23/02:30am 14.5 10.3 -1.2 34 6.5 ENE 11 13 6 7 1009.7 1009.4 0.0
23/02:00am 16.0 11.8 -0.7 32 7.0 ENE 11 13 6 7 1010.0 1009.7 0.0
23/01:30am 16.7 13.4 0.4 33 7.1 ESE 7 9 4 5 1010.2 1009.9 0.0
23/01:00am 15.1 10.7 0.5 37 6.3 ENE 13 13 7 7 1010.1 1009.8 0.0
23/12:30am 16.6 12.8 1.9 37 6.6 NE 11 13 6 7 1010.3 1010.0 0.0
23/12:00am 18.4 14.9 1.4 32 7.7 ESE 9 13 5 7 1010.3 1010.0 0.0
 
Date/Time
CDT
Temp
°C
App
Temp
°C
Dew
Point
°C
Rel
Hum
%
Delta-T
°C
Wind Press
QNH
hPa
Press
MSL
hPa
Rain since
9am
mm
Dir  Spd
km/h
Gust
km/h
Spd
kts
Gust
kts
22/11:30pm 19.1 14.7 2.5 33 7.7 E 15 17 8 9 1010.6 1010.4 0.0
22/11:00pm 20.7 17.3 3.9 33 8.1 ESE 11 15 6 8 1010.7 1010.5 0.0
22/10:30pm 19.5 16.2 4.8 38 7.1 ENE 11 13 6 7 1010.7 1010.5 0.0
22/10:00pm 20.1 17.3 6.8 42 6.7 ENE 11 15 6 8 1010.5 1010.3 0.0
22/09:30pm 20.0 19.5 8.0 46 6.2 CALM 0 0 0 0 1010.3 1010.0 0.0
22/09:00pm 22.9 22.9 9.7 43 7.2 CALM 0 0 0 0 1010.0 1009.7 0.0
22/08:30pm 25.2 23.7 10.6 40 8.2 WSW 9 11 5 6 1009.9 1009.6 0.0
22/08:00pm 28.1 25.9 10.8 34 9.8 SW 13 20 7 11 1009.7 1009.4 0.0
22/07:30pm 29.3 25.3 6.7 24 12.1 SW 17 22 9 12 1009.6 1009.3 0.0
22/07:00pm 29.8 25.9 8.8 27 11.7 SW 19 26 10 14 1009.2 1008.9 0.0
22/06:30pm 30.0 25.2 7.2 24 12.4 SW 22 30 12 16 1009.2 1008.9 0.0
22/06:00pm 31.2 25.3 4.1 18 14.0 SW 24 32 13 17 1009.1 1008.8 0.0
22/05:30pm 31.2 25.0 2.4 16 14.5 SW 24 30 13 16 1009.2 1008.9 0.0
22/05:00pm 31.9 24.7 -4.9 9 16.4 SSW 24 30 13 16 1009.2 1008.9 0.0
22/04:30pm 32.6 26.0 -0.5 12 16.0 SW 24 32 13 17 1009.4 1009.1 0.0
22/04:00pm 33.5 27.2 1.3 13 16.1 SW 24 32 13 17 1009.6 1009.3 0.0
22/03:30pm 33.2 27.2 1.1 13 16.0 SW 22 30 12 16 1009.8 1009.5 0.0
22/03:00pm 33.3 26.9 1.2 13 16.1 SW 24 32 13 17 1009.9 1009.6 0.0
22/02:30pm 32.9 27.4 0.9 13 15.9 SW 19 24 10 13 1010.0 1009.7 0.0
22/02:00pm 33.0 27.2 -1.4 11 16.4 SW 19 26 10 14 1010.1 1009.8 0.0
22/01:30pm 32.5 27.2 -0.5 12 16.0 SW 17 24 9 13 1010.5 1010.3 0.0
22/01:00pm 32.0 27.0 1.2 14 15.3 SW 17 22 9 12 1010.6 1010.4 0.0
22/12:30pm 31.9 27.6 3.0 16 14.8 SSW 15 24 8 13 1010.8 1010.6 0.0
22/12:00pm 31.1 26.8 3.2 17 14.2 SSW 15 26 8 14 1010.9 1010.7 0.0
22/11:30am 29.9 25.8 2.2 17 13.8 SW 13 19 7 10 1011.1 1010.9 0.0
22/11:00am 29.1 25.3 1.6 17 13.5 SW 11 17 6 9 1011.3 1011.1 0.0
22/10:30am 28.6 25.3 2.7 19 12.9 SSW 9 13 5 7 1011.5 1011.3 0.0
22/10:00am 27.3 25.3 2.4 20 12.2 NNW 2 7 1 4 1011.4 1011.2 0.0
22/09:30am 26.1 23.6 1.4 20 11.8 SE 4 9 2 5 1011.7 1011.5 0.0
22/09:00am 25.2 22.3 1.3 21 11.3 SE 6 9 3 5 1011.7 1011.5 0.0
22/08:30am 23.9 20.7 0.9 22 10.7 ESE 7 11 4 6 1011.6 1011.4 0.0
22/08:00am 21.3 17.5 1.6 27 9.1 NE 11 15 6 8 1011.3 1011.1 0.0
22/07:30am 18.0 13.7 1.1 32 7.5 NNE 13 17 7 9 1011.2 1011.0 0.0
22/07:28am 17.9 13.2 1.0 32 7.5 NNE 15 17 8 9 1011.2 1011.0 0.0
22/07:00am 12.9 8.3 -0.7 39 5.6 ENE 13 15 7 8 1010.9 1010.7 0.0
22/06:30am 11.7 7.8 -1.4 40 5.2 E 9 13 5 7 1010.7 1010.5 0.0
22/06:00am 11.2 7.3 -1.2 42 4.9 E 9 13 5 7 1010.2 1009.9 0.0
22/05:30am 10.9 6.8 -3.2 37 5.3 NE 9 11 5 6 1010.1 1009.8 0.0
22/05:00am 13.8 9.6 -0.6 37 5.9 NE 11 13 6 7 1009.6 1009.3 0.0
22/04:30am 14.2 10.0 -0.6 36 6.2 E 11 13 6 7 1009.3 1009.0 0.0
22/04:00am 14.1 10.0 -0.4 37 6.0 ENE 11 15 6 8 1009.4 1009.1 0.0
22/03:30am 15.4 10.2 0.0 35 6.6 ENE 17 17 9 9 1009.3 1009.0 0.0
22/03:00am 14.9 11.0 1.1 39 6.0 E 11 13 6 7 1009.6 1009.3 0.0
22/02:30am 15.2 11.7 1.0 38 6.2 NE 9 11 5 6 1009.7 1009.4 0.0
22/02:00am 14.7 10.1 1.3 40 5.8 NE 15 17 8 9 1009.6 1009.3 0.0
22/01:30am 15.2 10.5 0.6 37 6.3 E 15 17 8 9 1009.6 1009.3 0.0
22/01:00am 14.5 10.4 0.0 37 6.1 E 11 13 6 7 1010.1 1009.8 0.0
22/12:30am 14.7 10.9 -0.6 35 6.4 ENE 9 11 5 6 1010.5 1010.3 0.0
22/12:27am 15.0 10.8 -0.7 34 6.5 E 11 11 6 6 1010.5 1010.3 0.0
22/12:00am 20.2 16.1 2.1 30 8.4 ESE 13 15 7 8 1010.6 1010.4 0.0
 
Date/Time
CDT
Temp
°C
App
Temp
°C
Dew
Point
°C
Rel
Hum
%
Delta-T
°C
Wind Press
QNH
hPa
Press
MSL
hPa
Rain since
9am
mm
Dir  Spd
km/h
Gust
km/h
Spd
kts
Gust
kts
21/11:30pm 20.7 17.1 3.0 31 8.4 ESE 11 15 6 8 1010.7 1010.5 0.0
21/11:00pm 18.8 14.9 1.3 31 7.9 ESE 11 15 6 8 1010.6 1010.4 0.0
21/10:30pm 21.7 20.1 6.4 37 7.8 SSE 4 11 2 6 1010.7 1010.5 0.0
21/10:00pm 22.0 20.5 8.5 42 7.1 ESE 6 7 3 4 1010.4 1010.2 0.0
21/09:30pm 22.1 19.6 4.7 32 8.6 SSW 7 17 4 9 1010.0 1009.7 0.0
21/09:00pm 23.3 20.1 3.3 27 9.7 WSW 9 11 5 6 1009.8 1009.5 0.0
21/08:30pm 26.6 22.8 3.8 23 11.4 SW 13 17 7 9 1009.7 1009.4 0.0
21/08:00pm 29.4 24.1 4.8 21 12.7 SW 22 28 12 15 1009.5 1009.2 0.0
21/07:30pm 31.9 26.1 4.6 18 14.3 SSW 24 37 13 20 1008.9 1008.6 0.0

Other formats

Comma delimited format used in spreadsheet applications
http://www.bom.gov.au/fwo/IDS60801/IDS60801.95671.axf

JavaScript Object Notation format (JSON) in row-major order
http://www.bom.gov.au/fwo/IDS60801/IDS60801.95671.json

Data quality

Most of these data are generated automatically and are frequently updated. Quality checks on data are not normally performed. It is possible for incorrect values to appear. Refer to information at About Latest Weather Observations and please check the disclaimer before using these data.